Lista wpisów na blogu

Data resetu licznika odwiedzin w danym dniu: 19.08.2022 [12:00]
Data Tytuł Liczba komentarzy Odsłon Dzisiaj
24-01-2022 [12:59] Jak Paryż chce pokierować Unią 2 346 0
24-01-2022 [08:10] Widmo finlandyzacji 3 361 2
23-01-2022 [13:31] Maltanka pokieruje europarlamentem. Plusy ujmemne nowej... 0 144 0
23-01-2022 [07:24] Wybory w cieniu żałoby. MAMY NOWE WŁADZE PE 1 401 0
22-01-2022 [13:45] Sojusz Rosji i Niemiec zawsze pachnie tak samo... 3 1,168 0
22-01-2022 [11:38] PIENIĄDZE NIE DLA ŻUŻLA - KTO ZASPAŁ? 1 233 0
21-01-2022 [18:17] Jesteśmy na wojnie - na cyberwojnie... 4 517 0
21-01-2022 [07:45] „Lewy” -„the best” i do PSG, a Messi do luftu z Gombrowiczem 1 330 0
20-01-2022 [13:37] Światowi liderzy i ich błędy Anno Domini 2021 1 760 0
20-01-2022 [08:01] Prorosyjskie głosowanie w Senacie 4 1,083 1
19-01-2022 [14:05] Oby rok 2022 był czasem chwały Biało-Czerwonego speedwaya! 3 362 0
19-01-2022 [07:57] 9 rad, jak wygrac wybory 9 1,051 0
18-01-2022 [13:41] Plebiscyty i fenomen żużla oraz nieznane karty z dziejów... 1 357 0
18-01-2022 [08:00] USA-Rosja: widmo finlandyzacji krąży nad Polską... 1 202 0
17-01-2022 [17:41] LGBT – „mięso armatnie” opozycji w walce z władzami RP 2 613 0
17-01-2022 [08:00] USA z największym wzrostem przestępczości od 1960 roku. 4 648 0
16-01-2022 [13:08] Koniec bezkrólewia w siatkówce! 1 300 0
16-01-2022 [08:00] Niedawno temu w Ameryce 0 285 0
15-01-2022 [13:20] Czarnecki na podium! Dziękuję! 1 271 1
15-01-2022 [08:00] O szpilach w Belgii i USA oraz kradzieży Gogola. 1 401 0
14-01-2022 [13:07] Szczyt USA-Rosja czyli zapach finlandyzacji. 8 924 0
14-01-2022 [07:39] „Czarnecko” to widzę. 1 372 0
13-01-2022 [14:20] SKANDYNAWIA BLIŻEJ NATO 8 1,419 1
13-01-2022 [09:15] Nie będzie agresji Rosji na Ukrainę ! 0 200 0
12-01-2022 [13:02] Republikanie w USA pokazali,jak się robi politykę w opozycji 1 435 0
12-01-2022 [13:01] STABILNY KAZACHSTAN W INTERESIE POLSKI I EUROPY 9 907 1
11-01-2022 [15:16] Chrześcijaństwo w Turcji i na Bliskim Wschodzie 1 314 1
11-01-2022 [08:00] Polityka międzynarodowa A.D. 2022: Wybory w USA i Francji 0 433 0
10-01-2022 [13:15] Życzenia na rok 2022 1 430 0
10-01-2022 [09:15] Pamięć o Powstaniach Śląskich sto lat później 1 350 2
09-01-2022 [18:48] POLSKA SÓJKA CZYLI REFORMA UE 1 396 0
09-01-2022 [08:46] Całkowita zmiana tematu 2 560 0
08-01-2022 [12:13] Polska kieruje OBWE 1 397 0
08-01-2022 [08:37] Imigranci skazali minister, Tuska „odór władzy” 3 665 0
07-01-2022 [13:32] By Morze Śródziemne błękitnym było 1 305 0
07-01-2022 [09:16] Co w olimpijskiej trawie piszczy 4 437 2
06-01-2022 [12:39] Szczęśliwy kraj czyli „cudze chwalicie, swego nie znacie” 16 1,560 3
06-01-2022 [04:13] Żużel na Igrzyskach? 2 276 0
05-01-2022 [16:21] Rosyjska lista płac i najemnicy z UE 5 724 0
05-01-2022 [07:36] Unio! Czas na realną solidarność z Kijowem! 6 696 0
04-01-2022 [12:55] Kluczowy partner strategiczny UE na Bliskim Wschodzie 2 420 0
04-01-2022 [07:34] Gorszy rok 2021 czyli błędy Zachodu 0 214 0
03-01-2022 [13:53] Polityczny rok 2021 – podsumowanie 1 246 1
03-01-2022 [07:27] Biało-Czerwony, medalowy rok 2022? 1 377 0
02-01-2022 [13:13] Co tam, Panie, w Ameryce 4 520 0
02-01-2022 [07:49] Za co lubię USA, za co nie lubię USA 1 394 0
01-01-2022 [13:08] ŻUŻLOWY SEZON 2022 –  jaki będzie? 0 223 0
01-01-2022 [07:57] Jaki był rok 2021? 2 389 0
31-12-2021 [15:52] Żużlowy rok 2021 0 277 0
30-12-2021 [08:40] Sportowy rok 2021 - podsumowanie 2 396 0

Strony